Virgil, South Dakota
Current Conditions -  °F | °C
As of 12:55 PM on Thursday 30 Oct 2014 (Local Time) from KHON Reporting Station
Overcast Overcast  
Wind Chill: 34°   Ceiling: 900
Heat Index: 42°   Visibility: 10mi
Dew Point: 37°   Wind: 18mph
Humidity: 82%   Direction: 340°NNW
Pressure: 30.24"   Gusts: 28mph
Location:  44.29°N, 98.42°W
Report Text: KHON 301755Z AUTO 34016G24KT 10SM OVC009 06/03 A3024 RMK AO2 SLP247 T00560028 10067 20022 53032
Loading
Personal Weather Stations






























Interactive Weather Map New forecast layout! Learn more

10-Day Weather Forecast

Advertisements
Track Severe Weather on mobile